sensor_id;sensor_type;location;lat;lon;timestamp;temperature;humidity
27633;DHT22;15046;50.930;13.334;2023-03-01T00:01:27;-3.00;90.90
27633;DHT22;15046;50.930;13.334;2023-03-01T00:03:54;-3.10;90.90
27633;DHT22;15046;50.930;13.334;2023-03-01T00:06:20;-3.20;91.00
27633;DHT22;15046;50.930;13.334;2023-03-01T00:08:46;-3.20;91.10
27633;DHT22;15046;50.930;13.334;2023-03-01T00:11:15;-3.10;91.10
27633;DHT22;15046;50.930;13.334;2023-03-01T00:13:43;-3.20;91.00
27633;DHT22;15046;50.930;13.334;2023-03-01T00:16:32;-3.20;91.20
27633;DHT22;15046;50.930;13.334;2023-03-01T00:19:01;-3.20;91.20
27633;DHT22;15046;50.930;13.334;2023-03-01T00:21:28;-3.30;91.40
27633;DHT22;15046;50.930;13.334;2023-03-01T00:23:54;-3.20;91.50
27633;DHT22;15046;50.930;13.334;2023-03-01T00:26:22;-3.20;91.40
27633;DHT22;15046;50.930;13.334;2023-03-01T00:28:48;-3.20;91.30
27633;DHT22;15046;50.930;13.334;2023-03-01T00:31:20;-3.30;91.40
27633;DHT22;15046;50.930;13.334;2023-03-01T00:33:46;-3.30;91.50
27633;DHT22;15046;50.930;13.334;2023-03-01T00:36:13;-3.30;91.60
27633;DHT22;15046;50.930;13.334;2023-03-01T00:38:41;-3.40;91.60
27633;DHT22;15046;50.930;13.334;2023-03-01T00:41:13;-3.40;91.70
27633;DHT22;15046;50.930;13.334;2023-03-01T00:43:40;-3.40;91.90
27633;DHT22;15046;50.930;13.334;2023-03-01T00:46:18;-3.50;91.90
27633;DHT22;15046;50.930;13.334;2023-03-01T00:48:44;-3.50;91.90
27633;DHT22;15046;50.930;13.334;2023-03-01T00:51:22;-3.60;92.00
27633;DHT22;15046;50.930;13.334;2023-03-01T00:53:54;-3.60;92.10
27633;DHT22;15046;50.930;13.334;2023-03-01T00:56:21;-3.60;92.20
27633;DHT22;15046;50.930;13.334;2023-03-01T00:58:47;-3.70;92.20
27633;DHT22;15046;50.930;13.334;2023-03-01T01:01:18;-3.60;92.30
27633;DHT22;15046;50.930;13.334;2023-03-01T01:03:48;-3.60;92.30
27633;DHT22;15046;50.930;13.334;2023-03-01T01:06:22;-3.60;92.20
27633;DHT22;15046;50.930;13.334;2023-03-01T01:08:50;-3.70;92.30
27633;DHT22;15046;50.930;13.334;2023-03-01T01:11:16;-3.70;92.30
27633;DHT22;15046;50.930;13.334;2023-03-01T01:13:44;-3.70;92.20
27633;DHT22;15046;50.930;13.334;2023-03-01T01:16:12;-3.80;92.10
27633;DHT22;15046;50.930;13.334;2023-03-01T01:18:38;-3.80;92.20
27633;DHT22;15046;50.930;13.334;2023-03-01T01:21:12;-3.90;92.30
27633;DHT22;15046;50.930;13.334;2023-03-01T01:23:39;-3.80;92.60
27633;DHT22;15046;50.930;13.334;2023-03-01T01:26:07;-3.90;92.60
27633;DHT22;15046;50.930;13.334;2023-03-01T01:28:34;-3.90;92.70
27633;DHT22;15046;50.930;13.334;2023-03-01T01:31:00;-3.90;92.70
27633;DHT22;15046;50.930;13.334;2023-03-01T01:33:26;-4.00;92.70
27633;DHT22;15046;50.930;13.334;2023-03-01T01:35:52;-4.00;92.80
27633;DHT22;15046;50.930;13.334;2023-03-01T01:38:19;-4.00;92.80
27633;DHT22;15046;50.930;13.334;2023-03-01T01:40:45;-4.00;92.90
27633;DHT22;15046;50.930;13.334;2023-03-01T01:43:26;-4.10;93.00
27633;DHT22;15046;50.930;13.334;2023-03-01T01:46:02;-4.10;93.00
27633;DHT22;15046;50.930;13.334;2023-03-01T01:48:46;-4.10;93.00
27633;DHT22;15046;50.930;13.334;2023-03-01T01:51:23;-4.20;93.10
27633;DHT22;15046;50.930;13.334;2023-03-01T01:53:53;-4.10;93.50
27633;DHT22;15046;50.930;13.334;2023-03-01T01:56:21;-4.20;93.50
27633;DHT22;15046;50.930;13.334;2023-03-01T01:58:49;-4.20;93.70
27633;DHT22;15046;50.930;13.334;2023-03-01T02:01:17;-4.20;93.80
27633;DHT22;15046;50.930;13.334;2023-03-01T02:03:44;-4.20;94.00
27633;DHT22;15046;50.930;13.334;2023-03-01T02:06:21;-4.20;94.00
27633;DHT22;15046;50.930;13.334;2023-03-01T02:08:57;-4.30;94.10
27633;DHT22;15046;50.930;13.334;2023-03-01T02:11:25;-4.30;94.60
27633;DHT22;15046;50.930;13.334;2023-03-01T02:13:52;-4.20;94.60
27633;DHT22;15046;50.930;13.334;2023-03-01T02:16:19;-4.30;94.50
27633;DHT22;15046;50.930;13.334;2023-03-01T02:18:46;-4.30;94.50
27633;DHT22;15046;50.930;13.334;2023-03-01T02:21:38;-4.30;94.50
27633;DHT22;15046;50.930;13.334;2023-03-01T02:24:26;-4.30;94.70
27633;DHT22;15046;50.930;13.334;2023-03-01T02:26:55;-4.30;94.80
27633;DHT22;15046;50.930;13.334;2023-03-01T02:29:23;-4.30;95.00
27633;DHT22;15046;50.930;13.334;2023-03-01T02:31:49;-4.30;95.00
27633;DHT22;15046;50.930;13.334;2023-03-01T02:34:22;-4.40;95.00
27633;DHT22;15046;50.930;13.334;2023-03-01T02:37:13;-4.50;95.00
27633;DHT22;15046;50.930;13.334;2023-03-01T02:39:40;-4.40;95.20
27633;DHT22;15046;50.930;13.334;2023-03-01T02:42:12;-4.50;95.30
27633;DHT22;15046;50.930;13.334;2023-03-01T02:44:39;-4.50;95.70
27633;DHT22;15046;50.930;13.334;2023-03-01T02:47:05;-4.50;95.80
27633;DHT22;15046;50.930;13.334;2023-03-01T02:49:34;-4.50;95.90
27633;DHT22;15046;50.930;13.334;2023-03-01T02:57:31;-4.50;95.90
27633;DHT22;15046;50.930;13.334;2023-03-01T03:00:03;-4.50;95.80
27633;DHT22;15046;50.930;13.334;2023-03-01T03:02:33;-4.50;95.80
27633;DHT22;15046;50.930;13.334;2023-03-01T03:05:11;-4.50;95.90
27633;DHT22;15046;50.930;13.334;2023-03-01T03:07:39;-4.50;96.00
27633;DHT22;15046;50.930;13.334;2023-03-01T03:10:07;-4.50;96.00
27633;DHT22;15046;50.930;13.334;2023-03-01T03:12:34;-4.50;96.00
27633;DHT22;15046;50.930;13.334;2023-03-01T03:15:00;-4.50;95.90
27633;DHT22;15046;50.930;13.334;2023-03-01T03:17:25;-4.50;95.90
27633;DHT22;15046;50.930;13.334;2023-03-01T03:19:51;-4.60;95.80
27633;DHT22;15046;50.930;13.334;2023-03-01T03:22:17;-4.70;96.00
27633;DHT22;15046;50.930;13.334;2023-03-01T03:24:43;-4.70;96.10
27633;DHT22;15046;50.930;13.334;2023-03-01T03:27:09;-4.80;96.40
27633;DHT22;15046;50.930;13.334;2023-03-01T03:29:35;-4.80;96.40
27633;DHT22;15046;50.930;13.334;2023-03-01T03:32:02;-4.80;96.50
27633;DHT22;15046;50.930;13.334;2023-03-01T03:34:28;-4.80;96.40
27633;DHT22;15046;50.930;13.334;2023-03-01T03:36:56;-4.90;96.30
27633;DHT22;15046;50.930;13.334;2023-03-01T03:39:23;-4.90;96.30
27633;DHT22;15046;50.930;13.334;2023-03-01T03:41:49;-5.00;96.30
27633;DHT22;15046;50.930;13.334;2023-03-01T03:44:14;-4.90;96.70
27633;DHT22;15046;50.930;13.334;2023-03-01T03:46:40;-5.00;96.60
27633;DHT22;15046;50.930;13.334;2023-03-01T03:49:06;-5.00;96.50
27633;DHT22;15046;50.930;13.334;2023-03-01T03:51:32;-5.00;96.70
27633;DHT22;15046;50.930;13.334;2023-03-01T03:53:57;-5.00;96.60
27633;DHT22;15046;50.930;13.334;2023-03-01T03:56:24;-5.00;96.60
27633;DHT22;15046;50.930;13.334;2023-03-01T03:58:52;-5.00;96.60
27633;DHT22;15046;50.930;13.334;2023-03-01T04:01:18;-5.10;96.70
27633;DHT22;15046;50.930;13.334;2023-03-01T04:03:44;-5.20;97.10
27633;DHT22;15046;50.930;13.334;2023-03-01T04:06:13;-5.20;97.50
27633;DHT22;15046;50.930;13.334;2023-03-01T04:08:40;-5.20;97.70
27633;DHT22;15046;50.930;13.334;2023-03-01T04:11:06;-5.20;97.60
27633;DHT22;15046;50.930;13.334;2023-03-01T04:13:52;-5.20;97.70
27633;DHT22;15046;50.930;13.334;2023-03-01T04:16:19;-5.20;97.80
27633;DHT22;15046;50.930;13.334;2023-03-01T04:18:45;-5.20;97.20
27633;DHT22;15046;50.930;13.334;2023-03-01T04:21:11;-5.20;97.20
27633;DHT22;15046;50.930;13.334;2023-03-01T04:23:38;-5.20;97.40
27633;DHT22;15046;50.930;13.334;2023-03-01T04:26:05;-5.30;97.60
27633;DHT22;15046;50.930;13.334;2023-03-01T04:28:33;-5.30;97.80
27633;DHT22;15046;50.930;13.334;2023-03-01T04:31:03;-5.30;97.90
27633;DHT22;15046;50.930;13.334;2023-03-01T04:33:41;-5.30;98.20
27633;DHT22;15046;50.930;13.334;2023-03-01T04:36:09;-5.30;98.10
27633;DHT22;15046;50.930;13.334;2023-03-01T04:38:36;-5.30;97.90
27633;DHT22;15046;50.930;13.334;2023-03-01T04:41:06;-5.40;97.70
27633;DHT22;15046;50.930;13.334;2023-03-01T04:43:33;-5.40;97.70
27633;DHT22;15046;50.930;13.334;2023-03-01T04:46:11;-5.50;98.10
27633;DHT22;15046;50.930;13.334;2023-03-01T04:48:38;-5.50;98.30
27633;DHT22;15046;50.930;13.334;2023-03-01T04:51:05;-5.50;98.40
27633;DHT22;15046;50.930;13.334;2023-03-01T04:53:32;-5.50;98.40
27633;DHT22;15046;50.930;13.334;2023-03-01T04:55:58;-5.50;98.40
27633;DHT22;15046;50.930;13.334;2023-03-01T04:58:26;-5.50;98.50
27633;DHT22;15046;50.930;13.334;2023-03-01T05:00:52;-5.50;98.60
27633;DHT22;15046;50.930;13.334;2023-03-01T05:03:19;-5.50;98.40
27633;DHT22;15046;50.930;13.334;2023-03-01T05:05:47;-5.60;98.70
27633;DHT22;15046;50.930;13.334;2023-03-01T05:08:14;-5.60;98.90
27633;DHT22;15046;50.930;13.334;2023-03-01T05:10:44;-5.60;99.00
27633;DHT22;15046;50.930;13.334;2023-03-01T05:13:12;-5.70;99.00
27633;DHT22;15046;50.930;13.334;2023-03-01T05:18:20;-5.80;99.70
27633;DHT22;15046;50.930;13.334;2023-03-01T05:20:46;-5.80;99.80
27633;DHT22;15046;50.930;13.334;2023-03-01T05:23:13;-5.80;99.90
27633;DHT22;15046;50.930;13.334;2023-03-01T05:25:39;-5.80;99.90
27633;DHT22;15046;50.930;13.334;2023-03-01T05:28:11;-5.80;99.90
27633;DHT22;15046;50.930;13.334;2023-03-01T05:30:37;-5.80;99.90
27633;DHT22;15046;50.930;13.334;2023-03-01T05:33:04;-5.80;99.90
27633;DHT22;15046;50.930;13.334;2023-03-01T05:35:39;-5.80;99.90
27633;DHT22;15046;50.930;13.334;2023-03-01T05:38:06;-5.90;99.90
27633;DHT22;15046;50.930;13.334;2023-03-01T05:40:33;-5.90;99.90
27633;DHT22;15046;50.930;13.334;2023-03-01T05:42:59;-5.90;99.90
27633;DHT22;15046;50.930;13.334;2023-03-01T05:45:26;-5.90;99.90
27633;DHT22;15046;50.930;13.334;2023-03-01T05:47:53;-5.90;99.90
27633;DHT22;15046;50.930;13.334;2023-03-01T05:50:25;-5.90;99.90
27633;DHT22;15046;50.930;13.334;2023-03-01T05:53:18;-5.90;99.90
27633;DHT22;15046;50.930;13.334;2023-03-01T05:55:43;-6.00;99.90
27633;DHT22;15046;50.930;13.334;2023-03-01T05:58:12;-6.00;99.90
27633;DHT22;15046;50.930;13.334;2023-03-01T06:00:40;-5.90;99.90
27633;DHT22;15046;50.930;13.334;2023-03-01T06:03:06;-6.00;99.90
27633;DHT22;15046;50.930;13.334;2023-03-01T06:05:32;-5.90;99.90
27633;DHT22;15046;50.930;13.334;2023-03-01T06:08:01;-5.90;99.90
27633;DHT22;15046;50.930;13.334;2023-03-01T06:10:27;-5.80;99.90
27633;DHT22;15046;50.930;13.334;2023-03-01T06:12:53;-5.90;99.90
27633;DHT22;15046;50.930;13.334;2023-03-01T06:15:19;-5.90;99.90
27633;DHT22;15046;50.930;13.334;2023-03-01T06:17:46;-5.90;99.90
27633;DHT22;15046;50.930;13.334;2023-03-01T06:20:18;-5.90;99.90
27633;DHT22;15046;50.930;13.334;2023-03-01T06:22:45;-5.90;99.90
27633;DHT22;15046;50.930;13.334;2023-03-01T06:25:13;-5.90;99.90
27633;DHT22;15046;50.930;13.334;2023-03-01T06:27:40;-5.80;99.90
27633;DHT22;15046;50.930;13.334;2023-03-01T06:30:08;-5.80;99.90
27633;DHT22;15046;50.930;13.334;2023-03-01T06:32:36;-5.70;99.90
27633;DHT22;15046;50.930;13.334;2023-03-01T06:35:03;-5.60;99.90
27633;DHT22;15046;50.930;13.334;2023-03-01T06:37:29;-5.60;99.90
27633;DHT22;15046;50.930;13.334;2023-03-01T06:39:55;-5.50;99.90
27633;DHT22;15046;50.930;13.334;2023-03-01T06:42:21;-5.40;99.90
27633;DHT22;15046;50.930;13.334;2023-03-01T06:44:47;-5.40;99.90
27633;DHT22;15046;50.930;13.334;2023-03-01T06:47:13;-5.30;99.90
27633;DHT22;15046;50.930;13.334;2023-03-01T06:49:39;-5.30;99.90
27633;DHT22;15046;50.930;13.334;2023-03-01T06:52:06;-5.20;99.90
27633;DHT22;15046;50.930;13.334;2023-03-01T06:54:32;-5.10;99.90
27633;DHT22;15046;50.930;13.334;2023-03-01T06:56:57;-5.00;99.90
27633;DHT22;15046;50.930;13.334;2023-03-01T06:59:23;-5.00;99.90
27633;DHT22;15046;50.930;13.334;2023-03-01T07:01:49;-4.90;99.90
27633;DHT22;15046;50.930;13.334;2023-03-01T07:04:15;-4.80;99.90
27633;DHT22;15046;50.930;13.334;2023-03-01T07:06:41;-4.70;99.90
27633;DHT22;15046;50.930;13.334;2023-03-01T07:09:06;-4.60;99.90
27633;DHT22;15046;50.930;13.334;2023-03-01T07:11:32;-4.60;99.90
27633;DHT22;15046;50.930;13.334;2023-03-01T07:13:58;-4.50;99.90
27633;DHT22;15046;50.930;13.334;2023-03-01T07:16:26;-4.40;99.90
27633;DHT22;15046;50.930;13.334;2023-03-01T07:18:51;-4.40;99.90
27633;DHT22;15046;50.930;13.334;2023-03-01T07:21:17;-4.30;99.90
27633;DHT22;15046;50.930;13.334;2023-03-01T07:23:43;-4.20;99.90
27633;DHT22;15046;50.930;13.334;2023-03-01T07:26:09;-4.10;99.90
27633;DHT22;15046;50.930;13.334;2023-03-01T07:28:35;-4.00;99.90
27633;DHT22;15046;50.930;13.334;2023-03-01T07:31:04;-3.90;99.90
27633;DHT22;15046;50.930;13.334;2023-03-01T07:33:30;-3.80;99.90
27633;DHT22;15046;50.930;13.334;2023-03-01T07:36:00;-3.70;99.90
27633;DHT22;15046;50.930;13.334;2023-03-01T07:38:28;-3.70;99.90
27633;DHT22;15046;50.930;13.334;2023-03-01T07:41:01;-3.60;99.90
27633;DHT22;15046;50.930;13.334;2023-03-01T07:43:30;-3.40;99.90
27633;DHT22;15046;50.930;13.334;2023-03-01T07:46:02;-3.30;99.90
27633;DHT22;15046;50.930;13.334;2023-03-01T07:48:29;-3.20;99.90
27633;DHT22;15046;50.930;13.334;2023-03-01T07:50:58;-3.10;99.90
27633;DHT22;15046;50.930;13.334;2023-03-01T07:53:24;-3.00;99.90
27633;DHT22;15046;50.930;13.334;2023-03-01T07:56:03;-2.90;99.90
27633;DHT22;15046;50.930;13.334;2023-03-01T07:58:29;-2.80;99.90
27633;DHT22;15046;50.930;13.334;2023-03-01T08:00:55;-2.70;99.90
27633;DHT22;15046;50.930;13.334;2023-03-01T08:03:21;-2.70;99.90
27633;DHT22;15046;50.930;13.334;2023-03-01T08:05:47;-2.60;99.90
27633;DHT22;15046;50.930;13.334;2023-03-01T08:08:12;-2.50;99.90
27633;DHT22;15046;50.930;13.334;2023-03-01T08:10:38;-2.40;99.90
27633;DHT22;15046;50.930;13.334;2023-03-01T08:13:04;-2.30;99.90
27633;DHT22;15046;50.930;13.334;2023-03-01T08:15:30;-2.20;99.90
27633;DHT22;15046;50.930;13.334;2023-03-01T08:17:55;-2.10;99.90
27633;DHT22;15046;50.930;13.334;2023-03-01T08:20:21;-2.10;99.90
27633;DHT22;15046;50.930;13.334;2023-03-01T08:22:47;-2.00;99.90
27633;DHT22;15046;50.930;13.334;2023-03-01T08:25:14;-1.90;99.90
27633;DHT22;15046;50.930;13.334;2023-03-01T08:27:39;-1.80;99.90
27633;DHT22;15046;50.930;13.334;2023-03-01T08:30:07;-1.60;99.90
27633;DHT22;15046;50.930;13.334;2023-03-01T08:32:38;-1.50;99.90
27633;DHT22;15046;50.930;13.334;2023-03-01T08:35:04;-1.50;99.90
27633;DHT22;15046;50.930;13.334;2023-03-01T08:37:30;-1.40;99.90
27633;DHT22;15046;50.930;13.334;2023-03-01T08:39:59;-1.30;99.90
27633;DHT22;15046;50.930;13.334;2023-03-01T08:42:26;-1.20;99.90
27633;DHT22;15046;50.930;13.334;2023-03-01T08:44:51;-1.00;99.90
27633;DHT22;15046;50.930;13.334;2023-03-01T08:47:17;-0.90;99.90
27633;DHT22;15046;50.930;13.334;2023-03-01T08:49:43;-0.80;99.90
27633;DHT22;15046;50.930;13.334;2023-03-01T08:52:09;-0.70;99.90
27633;DHT22;15046;50.930;13.334;2023-03-01T08:54:34;-0.60;99.90
27633;DHT22;15046;50.930;13.334;2023-03-01T08:57:03;-0.50;99.90
27633;DHT22;15046;50.930;13.334;2023-03-01T08:59:29;-0.40;99.90
27633;DHT22;15046;50.930;13.334;2023-03-01T09:01:55;-0.30;99.90
27633;DHT22;15046;50.930;13.334;2023-03-01T09:04:21;-0.20;99.90
27633;DHT22;15046;50.930;13.334;2023-03-01T09:06:47;-0.10;99.90
27633;DHT22;15046;50.930;13.334;2023-03-01T09:09:15;0.00;99.90
27633;DHT22;15046;50.930;13.334;2023-03-01T09:11:42;0.10;99.90
27633;DHT22;15046;50.930;13.334;2023-03-01T09:14:09;0.20;99.90
27633;DHT22;15046;50.930;13.334;2023-03-01T09:16:35;0.30;99.90
27633;DHT22;15046;50.930;13.334;2023-03-01T09:19:02;0.40;99.90
27633;DHT22;15046;50.930;13.334;2023-03-01T09:21:28;0.60;99.90
27633;DHT22;15046;50.930;13.334;2023-03-01T09:23:56;0.60;99.90
27633;DHT22;15046;50.930;13.334;2023-03-01T09:26:23;0.70;99.90
27633;DHT22;15046;50.930;13.334;2023-03-01T09:28:51;0.80;99.90
27633;DHT22;15046;50.930;13.334;2023-03-01T09:31:19;0.90;99.90
27633;DHT22;15046;50.930;13.334;2023-03-01T09:33:51;1.00;99.90
27633;DHT22;15046;50.930;13.334;2023-03-01T09:36:19;1.10;99.90
27633;DHT22;15046;50.930;13.334;2023-03-01T09:38:46;1.20;99.90
27633;DHT22;15046;50.930;13.334;2023-03-01T09:46:45;1.50;99.80
27633;DHT22;15046;50.930;13.334;2023-03-01T09:49:24;1.70;99.90
27633;DHT22;15046;50.930;13.334;2023-03-01T09:55:16;2.50;99.90
27633;DHT22;15046;50.930;13.334;2023-03-01T09:57:47;4.20;99.90
27633;DHT22;15046;50.930;13.334;2023-03-01T10:03:08;9.40;91.30
27633;DHT22;15046;50.930;13.334;2023-03-01T10:08:53;13.20;77.30
27633;DHT22;15046;50.930;13.334;2023-03-01T10:11:03;14.60;72.70
27633;DHT22;15046;50.930;13.334;2023-03-01T10:19:05;16.90;63.80
27633;DHT22;15046;50.930;13.334;2023-03-01T10:21:35;17.10;62.60
27633;DHT22;15046;50.930;13.334;2023-03-01T10:24:18;17.20;61.20
27633;DHT22;15046;50.930;13.334;2023-03-01T10:26:56;17.20;60.10
27633;DHT22;15046;50.930;13.334;2023-03-01T10:29:31;17.20;59.80
27633;DHT22;15046;50.930;13.334;2023-03-01T10:31:57;17.30;59.00
27633;DHT22;15046;50.930;13.334;2023-03-01T10:34:32;17.20;58.90
27633;DHT22;15046;50.930;13.334;2023-03-01T10:37:10;17.30;58.20
27633;DHT22;15046;50.930;13.334;2023-03-01T10:39:37;17.40;57.80
27633;DHT22;15046;50.930;13.334;2023-03-01T10:42:05;17.50;57.40
27633;DHT22;15046;50.930;13.334;2023-03-01T10:44:40;17.60;56.50
27633;DHT22;15046;50.930;13.334;2023-03-01T10:47:14;17.70;56.30
27633;DHT22;15046;50.930;13.334;2023-03-01T10:49:58;17.90;56.20
27633;DHT22;15046;50.930;13.334;2023-03-01T10:52:28;18.00;55.70
27633;DHT22;15046;50.930;13.334;2023-03-01T10:55:01;18.10;55.40
27633;DHT22;15046;50.930;13.334;2023-03-01T10:57:36;18.10;55.30
27633;DHT22;15046;50.930;13.334;2023-03-01T11:00:20;18.40;55.30
27633;DHT22;15046;50.930;13.334;2023-03-01T11:03:12;18.80;54.70
27633;DHT22;15046;50.930;13.334;2023-03-01T11:08:34;18.80;53.80
27633;DHT22;15046;50.930;13.334;2023-03-01T11:11:31;18.80;53.40
27633;DHT22;15046;50.930;13.334;2023-03-01T11:14:45;18.80;53.40
27633;DHT22;15046;50.930;13.334;2023-03-01T11:16:47;18.90;53.50
27633;DHT22;15046;50.930;13.334;2023-03-01T11:19:19;19.00;53.40
27633;DHT22;15046;50.930;13.334;2023-03-01T11:22:02;19.10;52.80
27633;DHT22;15046;50.930;13.334;2023-03-01T11:24:45;19.30;52.20
27633;DHT22;15046;50.930;13.334;2023-03-01T11:27:32;19.40;52.00
27633;DHT22;15046;50.930;13.334;2023-03-01T11:30:24;19.30;52.00
27633;DHT22;15046;50.930;13.334;2023-03-01T11:35:30;19.20;51.90
27633;DHT22;15046;50.930;13.334;2023-03-01T11:54:15;19.40;51.10
27633;DHT22;15046;50.930;13.334;2023-03-01T11:56:57;19.60;50.50
27633;DHT22;15046;50.930;13.334;2023-03-01T12:26:34;19.80;49.40
27633;DHT22;15046;50.930;13.334;2023-03-01T12:35:20;19.90;48.40
27633;DHT22;15046;50.930;13.334;2023-03-01T12:38:06;19.80;48.30
27633;DHT22;15046;50.930;13.334;2023-03-01T12:41:05;19.80;48.60
27633;DHT22;15046;50.930;13.334;2023-03-01T12:49:13;20.20;48.90
27633;DHT22;15046;50.930;13.334;2023-03-01T12:54:37;20.40;47.80
27633;DHT22;15046;50.930;13.334;2023-03-01T12:57:18;20.30;48.20
27633;DHT22;15046;50.930;13.334;2023-03-01T13:08:38;20.50;47.80
27633;DHT22;15046;50.930;13.334;2023-03-01T13:11:18;20.40;47.40
27633;DHT22;15046;50.930;13.334;2023-03-01T13:13:45;20.30;47.30
27633;DHT22;15046;50.930;13.334;2023-03-01T13:19:20;20.40;47.00
27633;DHT22;15046;50.930;13.334;2023-03-01T13:21:48;20.50;47.10
27633;DHT22;15046;50.930;13.334;2023-03-01T13:29:53;20.20;47.10
27633;DHT22;15046;50.930;13.334;2023-03-01T13:32:26;20.10;46.80
27633;DHT22;15046;50.930;13.334;2023-03-01T13:37:40;20.20;47.30
27633;DHT22;15046;50.930;13.334;2023-03-01T13:42:48;20.30;46.70
27633;DHT22;15046;50.930;13.334;2023-03-01T13:45:38;20.20;46.90
27633;DHT22;15046;50.930;13.334;2023-03-01T13:48:24;20.30;46.60
27633;DHT22;15046;50.930;13.334;2023-03-01T13:51:02;20.30;46.70
27633;DHT22;15046;50.930;13.334;2023-03-01T13:53:35;20.30;46.60
27633;DHT22;15046;50.930;13.334;2023-03-01T13:56:12;20.30;46.70
27633;DHT22;15046;50.930;13.334;2023-03-01T13:58:58;20.40;46.50
27633;DHT22;15046;50.930;13.334;2023-03-01T14:03:52;20.20;46.40
27633;DHT22;15046;50.930;13.334;2023-03-01T14:06:25;20.10;46.30
27633;DHT22;15046;50.930;13.334;2023-03-01T14:09:10;20.00;45.70
27633;DHT22;15046;50.930;13.334;2023-03-01T14:15:04;20.00;45.90
27633;DHT22;15046;50.930;13.334;2023-03-01T14:20:23;19.80;45.80
27633;DHT22;15046;50.930;13.334;2023-03-01T14:22:55;19.80;45.90
27633;DHT22;15046;50.930;13.334;2023-03-01T14:25:36;19.60;46.20
27633;DHT22;15046;50.930;13.334;2023-03-01T14:30:34;19.50;46.10
27633;DHT22;15046;50.930;13.334;2023-03-01T14:33:02;19.30;46.00
27633;DHT22;15046;50.930;13.334;2023-03-01T14:35:31;19.10;46.30
27633;DHT22;15046;50.930;13.334;2023-03-01T14:37:57;18.90;46.30
27633;DHT22;15046;50.930;13.334;2023-03-01T14:40:35;18.70;46.30
27633;DHT22;15046;50.930;13.334;2023-03-01T14:43:08;18.50;45.90
27633;DHT22;15046;50.930;13.334;2023-03-01T14:45:35;18.50;46.40
27633;DHT22;15046;50.930;13.334;2023-03-01T14:48:04;18.50;46.40
27633;DHT22;15046;50.930;13.334;2023-03-01T14:50:36;18.40;46.10
27633;DHT22;15046;50.930;13.334;2023-03-01T14:53:20;18.30;46.20
27633;DHT22;15046;50.930;13.334;2023-03-01T14:55:55;18.20;46.20
27633;DHT22;15046;50.930;13.334;2023-03-01T14:58:25;18.20;46.40
27633;DHT22;15046;50.930;13.334;2023-03-01T15:00:54;18.20;46.60
27633;DHT22;15046;50.930;13.334;2023-03-01T15:06:03;18.10;46.30
27633;DHT22;15046;50.930;13.334;2023-03-01T15:08:31;17.90;46.60
27633;DHT22;15046;50.930;13.334;2023-03-01T15:13:40;15.80;47.20
27633;DHT22;15046;50.930;13.334;2023-03-01T15:16:11;14.40;48.70
27633;DHT22;15046;50.930;13.334;2023-03-01T15:18:43;13.20;49.90
27633;DHT22;15046;50.930;13.334;2023-03-01T15:23:50;11.40;52.50
27633;DHT22;15046;50.930;13.334;2023-03-01T15:26:28;10.80;53.40
27633;DHT22;15046;50.930;13.334;2023-03-01T15:28:56;10.30;54.30
27633;DHT22;15046;50.930;13.334;2023-03-01T15:31:33;9.80;55.10
27633;DHT22;15046;50.930;13.334;2023-03-01T15:36:47;9.00;56.60
27633;DHT22;15046;50.930;13.334;2023-03-01T15:39:36;8.80;56.90
27633;DHT22;15046;50.930;13.334;2023-03-01T15:42:07;8.60;57.40
27633;DHT22;15046;50.930;13.334;2023-03-01T15:44:38;8.30;58.60
27633;DHT22;15046;50.930;13.334;2023-03-01T15:47:28;8.10;58.60
27633;DHT22;15046;50.930;13.334;2023-03-01T15:49:55;7.90;59.00
27633;DHT22;15046;50.930;13.334;2023-03-01T15:52:28;7.80;59.40
27633;DHT22;15046;50.930;13.334;2023-03-01T15:55:00;7.70;59.70
27633;DHT22;15046;50.930;13.334;2023-03-01T15:57:26;7.50;60.00
27633;DHT22;15046;50.930;13.334;2023-03-01T15:59:52;7.40;60.30
27633;DHT22;15046;50.930;13.334;2023-03-01T16:02:18;7.30;60.70
27633;DHT22;15046;50.930;13.334;2023-03-01T16:04:47;7.30;61.00
27633;DHT22;15046;50.930;13.334;2023-03-01T16:07:14;7.20;61.20
27633;DHT22;15046;50.930;13.334;2023-03-01T16:09:40;7.00;61.40
27633;DHT22;15046;50.930;13.334;2023-03-01T16:12:13;6.90;61.90
27633;DHT22;15046;50.930;13.334;2023-03-01T16:14:39;6.80;62.10
27633;DHT22;15046;50.930;13.334;2023-03-01T16:17:05;6.80;62.20
27633;DHT22;15046;50.930;13.334;2023-03-01T16:19:30;6.70;62.30
27633;DHT22;15046;50.930;13.334;2023-03-01T16:21:56;6.60;62.50
27633;DHT22;15046;50.930;13.334;2023-03-01T16:24:22;6.50;62.80
27633;DHT22;15046;50.930;13.334;2023-03-01T16:26:48;6.40;63.20
27633;DHT22;15046;50.930;13.334;2023-03-01T16:29:13;6.30;63.50
27633;DHT22;15046;50.930;13.334;2023-03-01T16:31:40;6.20;63.80
27633;DHT22;15046;50.930;13.334;2023-03-01T16:34:06;6.10;64.00
27633;DHT22;15046;50.930;13.334;2023-03-01T16:36:32;6.10;64.30
27633;DHT22;15046;50.930;13.334;2023-03-01T16:38:59;6.00;64.50
27633;DHT22;15046;50.930;13.334;2023-03-01T16:41:26;5.90;64.50
27633;DHT22;15046;50.930;13.334;2023-03-01T16:43:52;5.80;64.70
27633;DHT22;15046;50.930;13.334;2023-03-01T16:46:28;5.70;64.90
27633;DHT22;15046;50.930;13.334;2023-03-01T16:48:54;5.60;65.10
27633;DHT22;15046;50.930;13.334;2023-03-01T16:51:21;5.60;65.20
27633;DHT22;15046;50.930;13.334;2023-03-01T16:53:49;5.40;65.50
27633;DHT22;15046;50.930;13.334;2023-03-01T16:56:15;5.30;65.60
27633;DHT22;15046;50.930;13.334;2023-03-01T16:58:41;5.10;65.80
27633;DHT22;15046;50.930;13.334;2023-03-01T17:01:13;5.00;66.30
27633;DHT22;15046;50.930;13.334;2023-03-01T17:03:39;4.80;66.90
27633;DHT22;15046;50.930;13.334;2023-03-01T17:06:08;4.70;67.30
27633;DHT22;15046;50.930;13.334;2023-03-01T17:08:36;4.40;67.70
27633;DHT22;15046;50.930;13.334;2023-03-01T17:11:17;4.30;68.00
27633;DHT22;15046;50.930;13.334;2023-03-01T17:13:43;4.10;68.60
27633;DHT22;15046;50.930;13.334;2023-03-01T17:16:11;3.90;68.90
27633;DHT22;15046;50.930;13.334;2023-03-01T17:18:38;3.80;69.40
27633;DHT22;15046;50.930;13.334;2023-03-01T17:21:05;3.60;69.60
27633;DHT22;15046;50.930;13.334;2023-03-01T17:23:32;3.60;70.10
27633;DHT22;15046;50.930;13.334;2023-03-01T17:25:58;3.40;70.40
27633;DHT22;15046;50.930;13.334;2023-03-01T17:28:27;3.40;70.80
27633;DHT22;15046;50.930;13.334;2023-03-01T17:30:53;3.30;71.30
27633;DHT22;15046;50.930;13.334;2023-03-01T17:33:20;3.30;71.60
27633;DHT22;15046;50.930;13.334;2023-03-01T17:35:46;3.30;71.70
27633;DHT22;15046;50.930;13.334;2023-03-01T17:38:13;3.30;72.10
27633;DHT22;15046;50.930;13.334;2023-03-01T17:40:40;3.20;72.10
27633;DHT22;15046;50.930;13.334;2023-03-01T17:43:07;3.20;72.30
27633;DHT22;15046;50.930;13.334;2023-03-01T17:45:36;3.20;72.50
27633;DHT22;15046;50.930;13.334;2023-03-01T17:48:02;3.20;73.20
27633;DHT22;15046;50.930;13.334;2023-03-01T17:50:28;3.20;72.50
27633;DHT22;15046;50.930;13.334;2023-03-01T17:52:54;3.20;72.50